sensor_id;sensor_type;location;lat;lon;timestamp;P1;durP1;ratioP1;P2;durP2;ratioP2
32216;SDS011;67098;51.140;4.088;2023-04-25T00:01:04;22.85;;;6.00;;
32216;SDS011;67098;51.140;4.088;2023-04-25T00:03:30;20.80;;;4.47;;
32216;SDS011;67098;51.140;4.088;2023-04-25T00:05:58;16.92;;;4.57;;
32216;SDS011;67098;51.140;4.088;2023-04-25T00:08:28;19.58;;;4.95;;
32216;SDS011;67098;51.140;4.088;2023-04-25T00:10:55;22.77;;;4.45;;
32216;SDS011;67098;51.140;4.088;2023-04-25T00:13:21;19.98;;;4.95;;
32216;SDS011;67098;51.140;4.088;2023-04-25T00:15:47;16.42;;;4.53;;
32216;SDS011;67098;51.140;4.088;2023-04-25T00:18:14;25.98;;;4.85;;
32216;SDS011;67098;51.140;4.088;2023-04-25T00:20:40;16.45;;;4.07;;
32216;SDS011;67098;51.140;4.088;2023-04-25T00:23:09;21.75;;;5.35;;
32216;SDS011;67098;51.140;4.088;2023-04-25T00:25:35;16.85;;;4.30;;
32216;SDS011;67098;51.140;4.088;2023-04-25T00:28:01;20.20;;;4.35;;
32216;SDS011;67098;51.140;4.088;2023-04-25T00:30:27;15.18;;;4.72;;
32216;SDS011;67098;51.140;4.088;2023-04-25T00:32:52;19.92;;;4.63;;
32216;SDS011;67098;51.140;4.088;2023-04-25T00:35:18;22.48;;;4.82;;
32216;SDS011;67098;51.140;4.088;2023-04-25T00:37:44;15.23;;;4.50;;
32216;SDS011;67098;51.140;4.088;2023-04-25T00:40:10;17.70;;;4.35;;
32216;SDS011;67098;51.140;4.088;2023-04-25T00:42:36;26.75;;;4.70;;
32216;SDS011;67098;51.140;4.088;2023-04-25T00:45:04;17.05;;;4.72;;
32216;SDS011;67098;51.140;4.088;2023-04-25T00:47:31;23.73;;;4.60;;
32216;SDS011;67098;51.140;4.088;2023-04-25T00:49:58;21.27;;;4.85;;
32216;SDS011;67098;51.140;4.088;2023-04-25T00:52:23;19.83;;;5.43;;
32216;SDS011;67098;51.140;4.088;2023-04-25T00:54:49;19.83;;;4.20;;
32216;SDS011;67098;51.140;4.088;2023-04-25T00:57:15;21.98;;;4.97;;
32216;SDS011;67098;51.140;4.088;2023-04-25T00:59:41;28.80;;;5.13;;
32216;SDS011;67098;51.140;4.088;2023-04-25T01:02:11;21.92;;;4.82;;
32216;SDS011;67098;51.140;4.088;2023-04-25T01:04:37;20.75;;;4.72;;
32216;SDS011;67098;51.140;4.088;2023-04-25T01:07:04;19.25;;;4.82;;
32216;SDS011;67098;51.140;4.088;2023-04-25T01:09:30;29.17;;;4.63;;
32216;SDS011;67098;51.140;4.088;2023-04-25T01:11:57;17.27;;;3.95;;
32216;SDS011;67098;51.140;4.088;2023-04-25T01:14:22;21.08;;;4.75;;
32216;SDS011;67098;51.140;4.088;2023-04-25T01:16:48;23.45;;;4.55;;
32216;SDS011;67098;51.140;4.088;2023-04-25T01:19:15;18.92;;;5.03;;
32216;SDS011;67098;51.140;4.088;2023-04-25T01:21:43;18.38;;;4.60;;
32216;SDS011;67098;51.140;4.088;2023-04-25T01:24:09;20.05;;;4.72;;
32216;SDS011;67098;51.140;4.088;2023-04-25T01:26:35;19.20;;;4.78;;
32216;SDS011;67098;51.140;4.088;2023-04-25T01:29:01;21.92;;;4.43;;
32216;SDS011;67098;51.140;4.088;2023-04-25T01:31:28;22.73;;;4.70;;
32216;SDS011;67098;51.140;4.088;2023-04-25T01:33:55;22.63;;;5.65;;
32216;SDS011;67098;51.140;4.088;2023-04-25T01:36:21;27.30;;;4.60;;
32216;SDS011;67098;51.140;4.088;2023-04-25T01:38:47;27.10;;;4.47;;
32216;SDS011;67098;51.140;4.088;2023-04-25T01:41:13;16.90;;;3.95;;
32216;SDS011;67098;51.140;4.088;2023-04-25T01:43:39;20.55;;;4.10;;
32216;SDS011;67098;51.140;4.088;2023-04-25T01:46:05;15.52;;;4.18;;
32216;SDS011;67098;51.140;4.088;2023-04-25T01:48:31;19.77;;;4.72;;
32216;SDS011;67098;51.140;4.088;2023-04-25T01:50:57;20.35;;;3.72;;
32216;SDS011;67098;51.140;4.088;2023-04-25T01:53:23;21.70;;;4.68;;
32216;SDS011;67098;51.140;4.088;2023-04-25T01:55:49;20.95;;;5.10;;
32216;SDS011;67098;51.140;4.088;2023-04-25T01:58:15;23.77;;;4.65;;
32216;SDS011;67098;51.140;4.088;2023-04-25T02:00:41;23.92;;;4.47;;
32216;SDS011;67098;51.140;4.088;2023-04-25T02:03:06;21.70;;;4.05;;
32216;SDS011;67098;51.140;4.088;2023-04-25T02:05:39;21.75;;;5.15;;
32216;SDS011;67098;51.140;4.088;2023-04-25T02:08:05;20.67;;;4.13;;
32216;SDS011;67098;51.140;4.088;2023-04-25T02:10:32;23.02;;;4.57;;
32216;SDS011;67098;51.140;4.088;2023-04-25T02:12:59;24.20;;;4.78;;
32216;SDS011;67098;51.140;4.088;2023-04-25T02:15:25;22.60;;;4.88;;
32216;SDS011;67098;51.140;4.088;2023-04-25T02:17:50;25.13;;;4.93;;
32216;SDS011;67098;51.140;4.088;2023-04-25T02:20:20;27.10;;;4.53;;
32216;SDS011;67098;51.140;4.088;2023-04-25T02:22:46;23.42;;;4.60;;
32216;SDS011;67098;51.140;4.088;2023-04-25T02:25:12;20.88;;;4.28;;
32216;SDS011;67098;51.140;4.088;2023-04-25T02:27:38;16.15;;;4.13;;
32216;SDS011;67098;51.140;4.088;2023-04-25T02:30:04;23.23;;;4.63;;
32216;SDS011;67098;51.140;4.088;2023-04-25T02:32:31;25.77;;;4.13;;
32216;SDS011;67098;51.140;4.088;2023-04-25T02:34:59;23.83;;;4.47;;
32216;SDS011;67098;51.140;4.088;2023-04-25T02:37:29;20.08;;;4.53;;
32216;SDS011;67098;51.140;4.088;2023-04-25T02:39:55;23.83;;;4.40;;
32216;SDS011;67098;51.140;4.088;2023-04-25T02:42:21;25.85;;;4.20;;
32216;SDS011;67098;51.140;4.088;2023-04-25T02:44:47;19.95;;;4.43;;
32216;SDS011;67098;51.140;4.088;2023-04-25T02:47:12;31.83;;;5.25;;
32216;SDS011;67098;51.140;4.088;2023-04-25T02:49:38;22.50;;;5.13;;
32216;SDS011;67098;51.140;4.088;2023-04-25T02:52:04;17.65;;;3.90;;
32216;SDS011;67098;51.140;4.088;2023-04-25T02:54:29;20.25;;;4.38;;
32216;SDS011;67098;51.140;4.088;2023-04-25T02:56:55;26.88;;;4.25;;
32216;SDS011;67098;51.140;4.088;2023-04-25T02:59:21;18.83;;;4.15;;
32216;SDS011;67098;51.140;4.088;2023-04-25T03:01:47;19.95;;;4.85;;
32216;SDS011;67098;51.140;4.088;2023-04-25T03:04:12;15.73;;;4.63;;
32216;SDS011;67098;51.140;4.088;2023-04-25T03:06:38;25.98;;;5.05;;
32216;SDS011;67098;51.140;4.088;2023-04-25T03:09:04;25.38;;;4.20;;
32216;SDS011;67098;51.140;4.088;2023-04-25T03:11:29;25.23;;;3.83;;
32216;SDS011;67098;51.140;4.088;2023-04-25T03:13:55;21.50;;;3.78;;
32216;SDS011;67098;51.140;4.088;2023-04-25T03:16:21;14.93;;;3.80;;
32216;SDS011;67098;51.140;4.088;2023-04-25T03:18:47;15.85;;;3.90;;
32216;SDS011;67098;51.140;4.088;2023-04-25T03:21:14;12.70;;;3.65;;
32216;SDS011;67098;51.140;4.088;2023-04-25T03:23:40;19.58;;;4.22;;
32216;SDS011;67098;51.140;4.088;2023-04-25T03:26:06;21.77;;;3.65;;
32216;SDS011;67098;51.140;4.088;2023-04-25T03:28:31;20.35;;;3.92;;
32216;SDS011;67098;51.140;4.088;2023-04-25T03:30:57;20.90;;;3.80;;
32216;SDS011;67098;51.140;4.088;2023-04-25T03:33:22;21.40;;;3.55;;
32216;SDS011;67098;51.140;4.088;2023-04-25T03:35:48;15.82;;;3.40;;
32216;SDS011;67098;51.140;4.088;2023-04-25T03:38:15;15.25;;;3.20;;
32216;SDS011;67098;51.140;4.088;2023-04-25T03:40:40;29.70;;;5.13;;
32216;SDS011;67098;51.140;4.088;2023-04-25T03:43:06;16.83;;;4.22;;
32216;SDS011;67098;51.140;4.088;2023-04-25T03:45:32;14.85;;;3.13;;
32216;SDS011;67098;51.140;4.088;2023-04-25T03:47:58;14.60;;;2.97;;
32216;SDS011;67098;51.140;4.088;2023-04-25T03:50:23;17.25;;;2.97;;
32216;SDS011;67098;51.140;4.088;2023-04-25T03:52:49;19.15;;;3.22;;
32216;SDS011;67098;51.140;4.088;2023-04-25T03:55:15;24.10;;;3.22;;
32216;SDS011;67098;51.140;4.088;2023-04-25T03:57:41;14.18;;;2.72;;
32216;SDS011;67098;51.140;4.088;2023-04-25T04:00:06;19.08;;;3.33;;
32216;SDS011;67098;51.140;4.088;2023-04-25T04:02:33;10.93;;;2.42;;
32216;SDS011;67098;51.140;4.088;2023-04-25T04:05:00;15.07;;;3.30;;
32216;SDS011;67098;51.140;4.088;2023-04-25T04:07:25;15.57;;;3.08;;
32216;SDS011;67098;51.140;4.088;2023-04-25T04:09:51;17.13;;;3.08;;
32216;SDS011;67098;51.140;4.088;2023-04-25T04:12:17;13.05;;;3.20;;
32216;SDS011;67098;51.140;4.088;2023-04-25T04:14:42;14.07;;;3.50;;
32216;SDS011;67098;51.140;4.088;2023-04-25T04:17:08;14.00;;;2.95;;
32216;SDS011;67098;51.140;4.088;2023-04-25T04:19:34;15.38;;;2.58;;
32216;SDS011;67098;51.140;4.088;2023-04-25T04:22:01;15.43;;;2.75;;
32216;SDS011;67098;51.140;4.088;2023-04-25T04:24:26;13.05;;;2.72;;
32216;SDS011;67098;51.140;4.088;2023-04-25T04:26:52;12.68;;;2.40;;
32216;SDS011;67098;51.140;4.088;2023-04-25T04:29:17;15.15;;;2.90;;
32216;SDS011;67098;51.140;4.088;2023-04-25T04:31:47;15.98;;;2.95;;
32216;SDS011;67098;51.140;4.088;2023-04-25T04:34:14;12.90;;;3.03;;
32216;SDS011;67098;51.140;4.088;2023-04-25T04:36:41;13.18;;;3.05;;
32216;SDS011;67098;51.140;4.088;2023-04-25T04:39:07;10.10;;;2.90;;
32216;SDS011;67098;51.140;4.088;2023-04-25T04:41:34;14.88;;;2.60;;
32216;SDS011;67098;51.140;4.088;2023-04-25T04:44:00;10.43;;;2.60;;
32216;SDS011;67098;51.140;4.088;2023-04-25T04:46:26;12.38;;;2.90;;
32216;SDS011;67098;51.140;4.088;2023-04-25T04:48:54;9.43;;;2.67;;
32216;SDS011;67098;51.140;4.088;2023-04-25T04:51:21;15.18;;;3.53;;
32216;SDS011;67098;51.140;4.088;2023-04-25T04:53:47;13.20;;;3.40;;
32216;SDS011;67098;51.140;4.088;2023-04-25T04:56:12;17.58;;;4.07;;
32216;SDS011;67098;51.140;4.088;2023-04-25T04:58:38;17.05;;;4.10;;
32216;SDS011;67098;51.140;4.088;2023-04-25T05:01:04;14.15;;;4.05;;
32216;SDS011;67098;51.140;4.088;2023-04-25T05:03:30;16.95;;;3.60;;
32216;SDS011;67098;51.140;4.088;2023-04-25T05:05:55;9.68;;;3.17;;
32216;SDS011;67098;51.140;4.088;2023-04-25T05:08:21;16.27;;;3.58;;
32216;SDS011;67098;51.140;4.088;2023-04-25T05:10:46;20.15;;;3.97;;
32216;SDS011;67098;51.140;4.088;2023-04-25T05:13:12;16.48;;;4.93;;
32216;SDS011;67098;51.140;4.088;2023-04-25T05:15:38;20.35;;;4.13;;
32216;SDS011;67098;51.140;4.088;2023-04-25T05:18:03;17.80;;;3.90;;
32216;SDS011;67098;51.140;4.088;2023-04-25T05:20:29;16.48;;;3.67;;
32216;SDS011;67098;51.140;4.088;2023-04-25T05:22:55;17.15;;;3.20;;
32216;SDS011;67098;51.140;4.088;2023-04-25T05:25:20;15.70;;;2.88;;
32216;SDS011;67098;51.140;4.088;2023-04-25T05:27:46;13.23;;;3.05;;
32216;SDS011;67098;51.140;4.088;2023-04-25T05:30:12;15.52;;;3.72;;
32216;SDS011;67098;51.140;4.088;2023-04-25T05:32:37;25.45;;;5.07;;
32216;SDS011;67098;51.140;4.088;2023-04-25T05:35:03;17.58;;;4.47;;
32216;SDS011;67098;51.140;4.088;2023-04-25T05:37:31;15.38;;;3.55;;
32216;SDS011;67098;51.140;4.088;2023-04-25T05:39:57;20.20;;;3.53;;
32216;SDS011;67098;51.140;4.088;2023-04-25T05:42:23;11.95;;;3.30;;
32216;SDS011;67098;51.140;4.088;2023-04-25T05:44:49;17.52;;;4.13;;
32216;SDS011;67098;51.140;4.088;2023-04-25T05:47:14;15.00;;;3.85;;
32216;SDS011;67098;51.140;4.088;2023-04-25T05:49:40;16.83;;;3.15;;
32216;SDS011;67098;51.140;4.088;2023-04-25T05:52:06;16.33;;;3.25;;
32216;SDS011;67098;51.140;4.088;2023-04-25T05:54:31;11.30;;;3.35;;
32216;SDS011;67098;51.140;4.088;2023-04-25T05:56:57;18.27;;;3.75;;
32216;SDS011;67098;51.140;4.088;2023-04-25T05:59:23;9.80;;;3.20;;
32216;SDS011;67098;51.140;4.088;2023-04-25T06:01:48;12.65;;;3.58;;
32216;SDS011;67098;51.140;4.088;2023-04-25T06:04:14;16.42;;;3.47;;
32216;SDS011;67098;51.140;4.088;2023-04-25T06:06:40;15.80;;;3.60;;
32216;SDS011;67098;51.140;4.088;2023-04-25T06:09:05;14.57;;;3.50;;
32216;SDS011;67098;51.140;4.088;2023-04-25T06:11:31;11.40;;;3.25;;
32216;SDS011;67098;51.140;4.088;2023-04-25T06:13:57;26.95;;;4.25;;
32216;SDS011;67098;51.140;4.088;2023-04-25T06:16:22;16.38;;;3.78;;
32216;SDS011;67098;51.140;4.088;2023-04-25T06:18:50;16.52;;;3.50;;
32216;SDS011;67098;51.140;4.088;2023-04-25T06:21:16;14.90;;;3.85;;
32216;SDS011;67098;51.140;4.088;2023-04-25T06:23:42;12.88;;;3.50;;
32216;SDS011;67098;51.140;4.088;2023-04-25T06:26:08;9.57;;;2.90;;
32216;SDS011;67098;51.140;4.088;2023-04-25T06:28:33;23.55;;;3.33;;
32216;SDS011;67098;51.140;4.088;2023-04-25T06:30:59;10.15;;;2.60;;
32216;SDS011;67098;51.140;4.088;2023-04-25T06:33:25;16.20;;;3.30;;
32216;SDS011;67098;51.140;4.088;2023-04-25T06:35:51;11.07;;;3.10;;
32216;SDS011;67098;51.140;4.088;2023-04-25T06:38:17;13.32;;;2.78;;
32216;SDS011;67098;51.140;4.088;2023-04-25T06:40:43;11.30;;;2.58;;
32216;SDS011;67098;51.140;4.088;2023-04-25T06:43:09;14.25;;;2.75;;
32216;SDS011;67098;51.140;4.088;2023-04-25T06:45:34;10.15;;;2.03;;
32216;SDS011;67098;51.140;4.088;2023-04-25T06:48:00;13.93;;;2.60;;
32216;SDS011;67098;51.140;4.088;2023-04-25T06:50:26;10.43;;;2.42;;
32216;SDS011;67098;51.140;4.088;2023-04-25T06:52:51;14.93;;;2.38;;
32216;SDS011;67098;51.140;4.088;2023-04-25T06:55:17;10.60;;;2.92;;
32216;SDS011;67098;51.140;4.088;2023-04-25T06:57:43;14.55;;;2.60;;
32216;SDS011;67098;51.140;4.088;2023-04-25T07:00:09;12.45;;;2.80;;
32216;SDS011;67098;51.140;4.088;2023-04-25T07:02:36;11.57;;;2.80;;
32216;SDS011;67098;51.140;4.088;2023-04-25T07:05:02;13.23;;;2.20;;
32216;SDS011;67098;51.140;4.088;2023-04-25T07:07:29;10.98;;;2.97;;
32216;SDS011;67098;51.140;4.088;2023-04-25T07:09:55;11.50;;;2.03;;
32216;SDS011;67098;51.140;4.088;2023-04-25T07:12:21;14.60;;;2.75;;
32216;SDS011;67098;51.140;4.088;2023-04-25T07:14:47;12.98;;;2.40;;
32216;SDS011;67098;51.140;4.088;2023-04-25T07:17:12;15.50;;;2.35;;
32216;SDS011;67098;51.140;4.088;2023-04-25T07:19:38;13.35;;;2.22;;
32216;SDS011;67098;51.140;4.088;2023-04-25T07:22:05;15.60;;;1.95;;
32216;SDS011;67098;51.140;4.088;2023-04-25T07:24:31;14.60;;;2.33;;
32216;SDS011;67098;51.140;4.088;2023-04-25T07:26:57;11.20;;;2.28;;
32216;SDS011;67098;51.140;4.088;2023-04-25T07:29:23;10.55;;;2.20;;
32216;SDS011;67098;51.140;4.088;2023-04-25T07:31:49;12.82;;;2.90;;
32216;SDS011;67098;51.140;4.088;2023-04-25T07:34:15;9.43;;;2.08;;
32216;SDS011;67098;51.140;4.088;2023-04-25T07:36:40;9.00;;;1.90;;
32216;SDS011;67098;51.140;4.088;2023-04-25T07:39:06;8.60;;;2.78;;
32216;SDS011;67098;51.140;4.088;2023-04-25T07:41:34;9.15;;;2.10;;
32216;SDS011;67098;51.140;4.088;2023-04-25T07:44:00;14.25;;;1.95;;
32216;SDS011;67098;51.140;4.088;2023-04-25T07:46:25;10.63;;;1.80;;
32216;SDS011;67098;51.140;4.088;2023-04-25T07:48:51;13.90;;;2.40;;
32216;SDS011;67098;51.140;4.088;2023-04-25T07:51:17;13.25;;;2.35;;
32216;SDS011;67098;51.140;4.088;2023-04-25T07:53:45;8.00;;;1.65;;
32216;SDS011;67098;51.140;4.088;2023-04-25T07:56:11;13.23;;;2.20;;
32216;SDS011;67098;51.140;4.088;2023-04-25T07:58:36;8.52;;;1.75;;
32216;SDS011;67098;51.140;4.088;2023-04-25T08:01:02;9.10;;;1.80;;
32216;SDS011;67098;51.140;4.088;2023-04-25T08:03:28;12.80;;;1.80;;
32216;SDS011;67098;51.140;4.088;2023-04-25T08:05:54;9.55;;;1.90;;
32216;SDS011;67098;51.140;4.088;2023-04-25T08:08:20;12.00;;;1.80;;
32216;SDS011;67098;51.140;4.088;2023-04-25T08:10:46;8.68;;;1.65;;
32216;SDS011;67098;51.140;4.088;2023-04-25T08:13:13;7.40;;;1.55;;
32216;SDS011;67098;51.140;4.088;2023-04-25T08:15:39;6.78;;;1.70;;
32216;SDS011;67098;51.140;4.088;2023-04-25T08:18:04;8.02;;;1.30;;
32216;SDS011;67098;51.140;4.088;2023-04-25T08:20:30;5.45;;;1.40;;
32216;SDS011;67098;51.140;4.088;2023-04-25T08:22:56;8.00;;;2.03;;
32216;SDS011;67098;51.140;4.088;2023-04-25T08:25:21;7.38;;;1.75;;
32216;SDS011;67098;51.140;4.088;2023-04-25T08:27:47;6.97;;;1.55;;
32216;SDS011;67098;51.140;4.088;2023-04-25T08:30:12;4.38;;;1.77;;
32216;SDS011;67098;51.140;4.088;2023-04-25T08:32:39;6.90;;;1.30;;
32216;SDS011;67098;51.140;4.088;2023-04-25T08:35:04;4.13;;;0.90;;
32216;SDS011;67098;51.140;4.088;2023-04-25T08:37:31;3.50;;;1.20;;
32216;SDS011;67098;51.140;4.088;2023-04-25T08:39:57;7.28;;;1.63;;
32216;SDS011;67098;51.140;4.088;2023-04-25T08:42:24;5.90;;;1.40;;
32216;SDS011;67098;51.140;4.088;2023-04-25T08:44:52;9.48;;;1.75;;
32216;SDS011;67098;51.140;4.088;2023-04-25T08:47:20;5.25;;;1.40;;
32216;SDS011;67098;51.140;4.088;2023-04-25T08:49:47;9.00;;;1.45;;
32216;SDS011;67098;51.140;4.088;2023-04-25T08:52:14;8.60;;;1.40;;
32216;SDS011;67098;51.140;4.088;2023-04-25T08:54:45;8.32;;;1.67;;
32216;SDS011;67098;51.140;4.088;2023-04-25T08:57:14;10.75;;;1.70;;
32216;SDS011;67098;51.140;4.088;2023-04-25T08:59:40;11.25;;;1.90;;
32216;SDS011;67098;51.140;4.088;2023-04-25T09:02:10;11.53;;;1.80;;
32216;SDS011;67098;51.140;4.088;2023-04-25T09:04:41;14.80;;;1.98;;
32216;SDS011;67098;51.140;4.088;2023-04-25T09:07:10;10.63;;;1.70;;
32216;SDS011;67098;51.140;4.088;2023-04-25T09:09:36;9.93;;;2.05;;
32216;SDS011;67098;51.140;4.088;2023-04-25T09:12:01;11.70;;;1.60;;
32216;SDS011;67098;51.140;4.088;2023-04-25T09:14:27;12.45;;;2.25;;
32216;SDS011;67098;51.140;4.088;2023-04-25T09:19:26;11.88;;;1.80;;
32216;SDS011;67098;51.140;4.088;2023-04-25T09:21:56;12.77;;;2.05;;
32216;SDS011;67098;51.140;4.088;2023-04-25T09:24:30;9.30;;;1.50;;
32216;SDS011;67098;51.140;4.088;2023-04-25T09:27:02;12.23;;;2.40;;
32216;SDS011;67098;51.140;4.088;2023-04-25T09:29:32;4.68;;;1.50;;
32216;SDS011;67098;51.140;4.088;2023-04-25T09:34:51;9.45;;;1.92;;
32216;SDS011;67098;51.140;4.088;2023-04-25T09:37:19;8.73;;;1.58;;
32216;SDS011;67098;51.140;4.088;2023-04-25T09:39:46;11.57;;;1.60;;
32216;SDS011;67098;51.140;4.088;2023-04-25T09:42:13;10.30;;;1.52;;
32216;SDS011;67098;51.140;4.088;2023-04-25T09:44:44;7.20;;;1.40;;
32216;SDS011;67098;51.140;4.088;2023-04-25T09:47:11;7.65;;;1.40;;
32216;SDS011;67098;51.140;4.088;2023-04-25T09:49:39;6.55;;;1.42;;
32216;SDS011;67098;51.140;4.088;2023-04-25T09:52:09;7.35;;;1.42;;
32216;SDS011;67098;51.140;4.088;2023-04-25T09:54:39;7.18;;;1.20;;
32216;SDS011;67098;51.140;4.088;2023-04-25T09:57:09;6.68;;;1.65;;
32216;SDS011;67098;51.140;4.088;2023-04-25T09:59:43;3.33;;;1.00;;
32216;SDS011;67098;51.140;4.088;2023-04-25T10:02:10;4.10;;;1.75;;
32216;SDS011;67098;51.140;4.088;2023-04-25T10:04:36;7.78;;;1.15;;
32216;SDS011;67098;51.140;4.088;2023-04-25T10:07:05;6.43;;;1.10;;
32216;SDS011;67098;51.140;4.088;2023-04-25T10:09:31;6.07;;;1.55;;
32216;SDS011;67098;51.140;4.088;2023-04-25T10:12:00;9.18;;;1.30;;
32216;SDS011;67098;51.140;4.088;2023-04-25T10:14:26;5.10;;;1.25;;
32216;SDS011;67098;51.140;4.088;2023-04-25T10:16:54;9.88;;;1.80;;
32216;SDS011;67098;51.140;4.088;2023-04-25T10:19:21;6.13;;;1.20;;
32216;SDS011;67098;51.140;4.088;2023-04-25T10:21:51;3.53;;;1.40;;
32216;SDS011;67098;51.140;4.088;2023-04-25T10:24:20;4.28;;;1.40;;
32216;SDS011;67098;51.140;4.088;2023-04-25T10:26:47;5.63;;;1.63;;
32216;SDS011;67098;51.140;4.088;2023-04-25T10:29:14;4.60;;;1.10;;
32216;SDS011;67098;51.140;4.088;2023-04-25T10:31:47;6.57;;;1.60;;
32216;SDS011;67098;51.140;4.088;2023-04-25T10:34:13;6.65;;;1.25;;
32216;SDS011;67098;51.140;4.088;2023-04-25T10:36:40;6.80;;;1.25;;
32216;SDS011;67098;51.140;4.088;2023-04-25T10:39:06;4.70;;;1.55;;
32216;SDS011;67098;51.140;4.088;2023-04-25T10:42:07;4.72;;;1.30;;
32216;SDS011;67098;51.140;4.088;2023-04-25T10:44:27;4.93;;;1.45;;
32216;SDS011;67098;51.140;4.088;2023-04-25T10:47:03;6.57;;;1.58;;
32216;SDS011;67098;51.140;4.088;2023-04-25T10:52:15;5.30;;;1.05;;
32216;SDS011;67098;51.140;4.088;2023-04-25T10:57:30;3.28;;;0.90;;
32216;SDS011;67098;51.140;4.088;2023-04-25T11:02:30;3.40;;;1.00;;
32216;SDS011;67098;51.140;4.088;2023-04-25T11:04:56;5.55;;;1.10;;
32216;SDS011;67098;51.140;4.088;2023-04-25T11:07:31;6.75;;;1.00;;
32216;SDS011;67098;51.140;4.088;2023-04-25T11:10:15;7.32;;;0.93;;
32216;SDS011;67098;51.140;4.088;2023-04-25T11:12:41;2.15;;;0.85;;
32216;SDS011;67098;51.140;4.088;2023-04-25T11:15:07;3.05;;;1.00;;
32216;SDS011;67098;51.140;4.088;2023-04-25T11:17:33;2.50;;;0.90;;
32216;SDS011;67098;51.140;4.088;2023-04-25T11:19:59;4.18;;;0.80;;
32216;SDS011;67098;51.140;4.088;2023-04-25T11:22:28;3.10;;;0.90;;
32216;SDS011;67098;51.140;4.088;2023-04-25T11:24:55;5.63;;;1.20;;
32216;SDS011;67098;51.140;4.088;2023-04-25T11:27:21;6.00;;;1.75;;
32216;SDS011;67098;51.140;4.088;2023-04-25T11:29:46;3.72;;;1.10;;
32216;SDS011;67098;51.140;4.088;2023-04-25T11:32:14;4.63;;;1.08;;
32216;SDS011;67098;51.140;4.088;2023-04-25T11:34:42;6.57;;;1.05;;
32216;SDS011;67098;51.140;4.088;2023-04-25T11:37:10;5.05;;;1.20;;
32216;SDS011;67098;51.140;4.088;2023-04-25T11:39:37;5.70;;;1.15;;
32216;SDS011;67098;51.140;4.088;2023-04-25T11:42:03;5.97;;;1.10;;
32216;SDS011;67098;51.140;4.088;2023-04-25T11:44:30;7.43;;;1.30;;
32216;SDS011;67098;51.140;4.088;2023-04-25T11:46:56;6.07;;;1.35;;
32216;SDS011;67098;51.140;4.088;2023-04-25T11:49:22;6.75;;;1.10;;
32216;SDS011;67098;51.140;4.088;2023-04-25T11:51:49;4.47;;;1.17;;
32216;SDS011;67098;51.140;4.088;2023-04-25T11:54:15;3.63;;;1.10;;
32216;SDS011;67098;51.140;4.088;2023-04-25T11:56:41;4.85;;;0.80;;
32216;SDS011;67098;51.140;4.088;2023-04-25T11:59:08;6.57;;;1.08;;
32216;SDS011;67098;51.140;4.088;2023-04-25T12:01:34;3.35;;;0.80;;
32216;SDS011;67098;51.140;4.088;2023-04-25T12:06:41;3.22;;;0.90;;
32216;SDS011;67098;51.140;4.088;2023-04-25T12:09:08;9.18;;;1.20;;
32216;SDS011;67098;51.140;4.088;2023-04-25T12:11:42;6.07;;;1.10;;
32216;SDS011;67098;51.140;4.088;2023-04-25T12:14:12;5.55;;;1.17;;
32216;SDS011;67098;51.140;4.088;2023-04-25T12:16:46;5.97;;;1.20;;
32216;SDS011;67098;51.140;4.088;2023-04-25T12:19:15;5.28;;;1.00;;
32216;SDS011;67098;51.140;4.088;2023-04-25T12:21:42;5.25;;;1.05;;
32216;SDS011;67098;51.140;4.088;2023-04-25T12:24:16;4.22;;;1.13;;
32216;SDS011;67098;51.140;4.088;2023-04-25T12:26:53;5.97;;;1.30;;
32216;SDS011;67098;51.140;4.088;2023-04-25T12:29:27;6.32;;;1.17;;
32216;SDS011;67098;51.140;4.088;2023-04-25T12:31:56;5.93;;;1.27;;
32216;SDS011;67098;51.140;4.088;2023-04-25T12:34:23;4.38;;;1.15;;
32216;SDS011;67098;51.140;4.088;2023-04-25T12:36:49;8.65;;;1.83;;
32216;SDS011;67098;51.140;4.088;2023-04-25T12:39:19;7.93;;;1.70;;
32216;SDS011;67098;51.140;4.088;2023-04-25T12:41:47;7.60;;;1.30;;
32216;SDS011;67098;51.140;4.088;2023-04-25T12:44:13;7.53;;;1.45;;
32216;SDS011;67098;51.140;4.088;2023-04-25T12:46:39;4.20;;;1.00;;
32216;SDS011;67098;51.140;4.088;2023-04-25T12:49:05;8.07;;;1.42;;
32216;SDS011;67098;51.140;4.088;2023-04-25T12:51:33;6.88;;;1.40;;
32216;SDS011;67098;51.140;4.088;2023-04-25T12:54:00;5.90;;;1.30;;
32216;SDS011;67098;51.140;4.088;2023-04-25T12:56:29;4.78;;;1.00;;
32216;SDS011;67098;51.140;4.088;2023-04-25T12:58:55;7.15;;;1.02;;
32216;SDS011;67098;51.140;4.088;2023-04-25T13:01:21;8.15;;;1.45;;
32216;SDS011;67098;51.140;4.088;2023-04-25T13:03:47;5.43;;;1.27;;
32216;SDS011;67098;51.140;4.088;2023-04-25T13:06:14;9.05;;;1.55;;
32216;SDS011;67098;51.140;4.088;2023-04-25T13:08:40;5.68;;;1.30;;
32216;SDS011;67098;51.140;4.088;2023-04-25T13:11:06;6.97;;;1.58;;
32216;SDS011;67098;51.140;4.088;2023-04-25T13:13:32;4.03;;;1.27;;
32216;SDS011;67098;51.140;4.088;2023-04-25T13:16:02;7.72;;;1.20;;
32216;SDS011;67098;51.140;4.088;2023-04-25T13:18:32;5.43;;;1.17;;
32216;SDS011;67098;51.140;4.088;2023-04-25T13:20:58;6.00;;;1.27;;
32216;SDS011;67098;51.140;4.088;2023-04-25T13:23:25;2.78;;;0.85;;
32216;SDS011;67098;51.140;4.088;2023-04-25T13:25:52;4.78;;;0.98;;
32216;SDS011;67098;51.140;4.088;2023-04-25T13:28:19;6.05;;;0.90;;
32216;SDS011;67098;51.140;4.088;2023-04-25T13:30:45;5.90;;;1.02;;
32216;SDS011;67098;51.140;4.088;2023-04-25T13:33:13;6.88;;;1.25;;
32216;SDS011;67098;51.140;4.088;2023-04-25T13:35:39;3.67;;;1.00;;
32216;SDS011;67098;51.140;4.088;2023-04-25T13:38:06;6.30;;;1.52;;
32216;SDS011;67098;51.140;4.088;2023-04-25T13:40:32;6.78;;;1.17;;
32216;SDS011;67098;51.140;4.088;2023-04-25T13:42:58;4.25;;;1.15;;
32216;SDS011;67098;51.140;4.088;2023-04-25T13:45:24;5.75;;;1.35;;
32216;SDS011;67098;51.140;4.088;2023-04-25T13:47:50;2.35;;;0.93;;
32216;SDS011;67098;51.140;4.088;2023-04-25T13:50:15;5.82;;;1.17;;
32216;SDS011;67098;51.140;4.088;2023-04-25T13:52:41;5.60;;;1.13;;
32216;SDS011;67098;51.140;4.088;2023-04-25T13:55:08;5.80;;;1.30;;
32216;SDS011;67098;51.140;4.088;2023-04-25T13:57:35;4.25;;;0.90;;
32216;SDS011;67098;51.140;4.088;2023-04-25T14:00:02;5.53;;;1.25;;
32216;SDS011;67098;51.140;4.088;2023-04-25T14:02:33;3.90;;;1.00;;
32216;SDS011;67098;51.140;4.088;2023-04-25T14:05:05;9.02;;;1.48;;
32216;SDS011;67098;51.140;4.088;2023-04-25T14:07:32;6.25;;;1.23;;
32216;SDS011;67098;51.140;4.088;2023-04-25T14:10:00;7.65;;;1.17;;
32216;SDS011;67098;51.140;4.088;2023-04-25T14:12:25;3.33;;;0.95;;
32216;SDS011;67098;51.140;4.088;2023-04-25T14:14:51;4.72;;;1.25;;
32216;SDS011;67098;51.140;4.088;2023-04-25T14:17:20;5.18;;;1.42;;
32216;SDS011;67098;51.140;4.088;2023-04-25T14:19:46;4.45;;;1.10;;
32216;SDS011;67098;51.140;4.088;2023-04-25T14:22:13;7.25;;;1.17;;
32216;SDS011;67098;51.140;4.088;2023-04-25T14:24:42;3.40;;;0.93;;
32216;SDS011;67098;51.140;4.088;2023-04-25T14:27:08;11.18;;;1.73;;
32216;SDS011;67098;51.140;4.088;2023-04-25T14:29:34;5.57;;;1.20;;
32216;SDS011;67098;51.140;4.088;2023-04-25T14:32:00;5.80;;;1.30;;
32216;SDS011;67098;51.140;4.088;2023-04-25T14:34:25;5.80;;;1.50;;
32216;SDS011;67098;51.140;4.088;2023-04-25T14:36:51;3.72;;;1.58;;
32216;SDS011;67098;51.140;4.088;2023-04-25T14:39:17;5.90;;;1.33;;
32216;SDS011;67098;51.140;4.088;2023-04-25T14:41:44;6.00;;;1.13;;
32216;SDS011;67098;51.140;4.088;2023-04-25T14:44:10;6.22;;;0.95;;
32216;SDS011;67098;51.140;4.088;2023-04-25T14:46:36;7.28;;;1.20;;
32216;SDS011;67098;51.140;4.088;2023-04-25T14:49:02;7.03;;;1.25;;
32216;SDS011;67098;51.140;4.088;2023-04-25T14:51:28;9.98;;;1.55;;
32216;SDS011;67098;51.140;4.088;2023-04-25T14:53:54;2.13;;;0.80;;